Terminal Aerodrome Forecast
Issued by NWS

Home | Current Version | Previous Version | Text Only | Print | Product List | Glossary On
Versions: 1 2 3 4 5 6 7 8 9 10 11 12 13 14 15 16 17 18 19 20 21 22 23 24 25 26 27 28 29 30 31 32 33 34 35 36 37 38 39 40
709
FTUS41 KBOX 281133
TAFBAF
TAF
KBAF 281133Z 2812/2912 00000KT 1/2SM FG BKN002
     FM281300 VRB03KT 2SM BR SCT003
     FM281400 01004KT P6SM BKN250
     FM282100 36004KT P6SM SCT050
     FM290700 02007KT P6SM BKN060=

USA.gov is the U.S. government's official web portal to all federal, state and local government web resources and services.